KLAA/LAA METAR and TAF weather

Enter ICAO airport designator
Station Type Date Time Source
KLAA METAR 2019/12/06 23:53 UTC NOAA

KLAA 062353Z AUTO 08008KT 10SM CLR 02/00 A3024 RMK AO2 SLP258 T00170000 10078 20000 55001


Station Type Date Time Source
KLAA Decoded METAR 2019/12/06 23:53 UTC NOAA

LAMAR MUNICIPAL AIRPORT, CO, United States (KLAA) 38-04N 102-41W 1119M
Dec 06, 2019 - 06:53 PM EST / 2019.12.06 2353 UTC
Wind: from the E (080 degrees) at 9 MPH (8 KT):0
Visibility: 10 mile(s):0
Sky conditions: clear
Temperature: 35.1 F (1.7 C)
Dew Point: 32.0 F (0.0 C)
Relative Humidity: 88%
Pressure (altimeter): 30.24 in. Hg (1024 hPa)
Pressure tendency: 0.00 inches (0.1 hPa) lower than three hours ago
ob: KLAA 062353Z AUTO 08008KT 10SM CLR 02/00 A3024 RMK AO2 SLP258 T00170000 10078 20000 55001
cycle: 0

Station Type Date Time Source
KLAA TAF UTC NOAA

Error!

Example: see airport list